LELC/MJV METAR and TAF weather

Enter ICAO airport designator
Station Type Date Time Source
LELC METAR 2020/01/28 11:30 UTC NOAA

LELC 281130Z 22010KT CAVOK 17/10 Q1024 NOSIG


Station Type Date Time Source
LELC Decoded METAR 2020/01/28 11:30 UTC NOAA

Murcia / San Javier, Spain (LELC) 37-47N 000-48W 3M
Jan 28, 2020 - 06:30 AM EST / 2020.01.28 1130 UTC
Wind: from the SW (220 degrees) at 12 MPH (10 KT):0
Visibility: greater than 7 mile(s):0
Temperature: 62 F (17 C)
Dew Point: 50 F (10 C)
Relative Humidity: 63%
Pressure (altimeter): 30.24 in. Hg (1024 hPa)
ob: LELC 281130Z 22010KT CAVOK 17/10 Q1024 NOSIG
cycle: 11

Station Type Date Time Source
LELC TAF 2020/01/28 12:27 UTC NOAA

TAF LELC 281100Z 2812/2912 22010KT CAVOK TX19/2814Z TN08/2906Z
BECMG 2818/2821 28006KT

Example: see airport list